createdAt,value
2022-12-27T00:00:42.526Z,99438.00
2022-12-27T00:03:11.867Z,99432.00
2022-12-27T00:05:48.663Z,99428.00
2022-12-27T00:08:18.001Z,99430.00
2022-12-27T00:10:47.312Z,99426.00
2022-12-27T00:13:17.191Z,99427.00
2022-12-27T00:15:46.398Z,99424.00
2022-12-27T00:18:15.598Z,99437.00
2022-12-27T00:20:44.802Z,99436.00
2022-12-27T00:23:13.959Z,99430.00
2022-12-27T00:25:43.109Z,99439.00
2022-12-27T00:28:12.321Z,99446.00
2022-12-27T00:30:42.362Z,99447.00
2022-12-27T00:33:11.724Z,99448.00
2022-12-27T00:35:41.403Z,99452.00
2022-12-27T00:38:10.577Z,99468.00
2022-12-27T00:40:43.108Z,99462.00
2022-12-27T00:43:12.266Z,99466.00
2022-12-27T00:45:41.596Z,99471.00
2022-12-27T00:48:11.047Z,99476.00
2022-12-27T00:50:43.467Z,99481.00
2022-12-27T00:53:13.867Z,99486.00
2022-12-27T00:55:46.852Z,99494.00
2022-12-27T00:58:16.086Z,99496.00
2022-12-27T01:00:45.463Z,99495.00
2022-12-27T01:03:14.848Z,99496.00
2022-12-27T01:05:44.188Z,99499.00
2022-12-27T01:08:13.801Z,99506.00
2022-12-27T01:10:43.622Z,99504.00
2022-12-27T01:13:12.799Z,99503.00
2022-12-27T01:15:44.504Z,99521.00
2022-12-27T01:18:13.740Z,99512.00
2022-12-27T01:20:42.851Z,99515.00
2022-12-27T01:23:12.111Z,99512.00
2022-12-27T01:25:41.371Z,99522.00
2022-12-27T01:28:10.957Z,99524.00
2022-12-27T01:30:40.732Z,99538.00
2022-12-27T01:33:09.980Z,99532.00
2022-12-27T01:35:39.181Z,99529.00
2022-12-27T01:38:08.468Z,99529.00
2022-12-27T01:40:39.093Z,99537.00
2022-12-27T01:43:15.935Z,99540.00
2022-12-27T01:45:47.239Z,99533.00
2022-12-27T01:48:25.758Z,99544.00
2022-12-27T01:51:05.019Z,99545.00
2022-12-27T01:53:43.964Z,99548.00
2022-12-27T01:56:32.646Z,99543.00
2022-12-27T01:59:10.492Z,99549.00
2022-12-27T02:01:48.294Z,99557.00
2022-12-27T02:04:22.504Z,99561.00
2022-12-27T02:06:54.210Z,99562.00
2022-12-27T02:09:37.099Z,99555.00
2022-12-27T02:12:10.401Z,99560.00
2022-12-27T02:14:46.923Z,99561.00
2022-12-27T02:17:27.649Z,99557.00
2022-12-27T02:20:18.617Z,99552.00
2022-12-27T02:23:39.229Z,99561.00
2022-12-27T02:26:33.223Z,99556.00
2022-12-27T02:29:24.764Z,99551.00
2022-12-27T02:32:15.522Z,99567.00
2022-12-27T02:35:25.877Z,99568.00
2022-12-27T02:38:12.615Z,99575.00
2022-12-27T02:41:04.465Z,99577.00
2022-12-27T02:43:53.035Z,99574.00
2022-12-27T02:46:49.630Z,99572.00
2022-12-27T02:49:54.091Z,99565.00
2022-12-27T02:53:06.192Z,99555.00
2022-12-27T02:56:27.460Z,99550.00
2022-12-27T02:59:17.546Z,99547.00
2022-12-27T03:02:58.599Z,99550.00
2022-12-27T03:06:23.669Z,99542.00
2022-12-27T03:09:47.922Z,99537.00
2022-12-27T03:12:55.911Z,99535.00
2022-12-27T03:15:58.357Z,99526.00
2022-12-27T03:18:45.702Z,99532.00
2022-12-27T03:22:00.562Z,99537.00
2022-12-27T03:24:54.488Z,99538.00
2022-12-27T03:27:36.457Z,99539.00
2022-12-27T03:30:28.286Z,99533.00
2022-12-27T03:33:16.239Z,99530.00
2022-12-27T03:36:27.272Z,99537.00
2022-12-27T03:39:32.791Z,99541.00
2022-12-27T03:42:37.010Z,99534.00
2022-12-27T03:45:06.998Z,99535.00
2022-12-27T03:48:04.564Z,99530.00
2022-12-27T03:50:47.319Z,99523.00
2022-12-27T03:53:41.396Z,99524.00
2022-12-27T03:56:11.409Z,99516.00
2022-12-27T03:58:40.641Z,99509.00
2022-12-27T04:01:10.018Z,99501.00
2022-12-27T04:03:39.303Z,99505.00
2022-12-27T04:06:08.807Z,99502.00
2022-12-27T04:08:56.322Z,99497.00
2022-12-27T04:11:43.866Z,99500.00
2022-12-27T04:14:31.817Z,99489.00
2022-12-27T04:17:19.219Z,99482.00
2022-12-27T04:20:06.456Z,99474.00
2022-12-27T04:22:53.922Z,99475.00
2022-12-27T04:25:41.501Z,99469.00
2022-12-27T04:28:28.703Z,99469.00
2022-12-27T04:31:16.871Z,99464.00
2022-12-27T04:34:04.611Z,99457.00
2022-12-27T04:36:34.055Z,99458.00
2022-12-27T04:39:03.489Z,99452.00
2022-12-27T04:41:51.055Z,99446.00
2022-12-27T04:44:39.071Z,99451.00
2022-12-27T04:47:35.505Z,99439.00
2022-12-27T04:50:24.535Z,99427.00
2022-12-27T04:53:11.937Z,99427.00
2022-12-27T04:55:41.191Z,99421.00
2022-12-27T04:58:10.365Z,99420.00
2022-12-27T05:00:57.741Z,99415.00
2022-12-27T05:03:27.088Z,99414.00
2022-12-27T05:05:56.739Z,99407.00
2022-12-27T05:08:43.935Z,99398.00
2022-12-27T05:11:31.699Z,99401.00
2022-12-27T05:14:01.640Z,99391.00
2022-12-27T05:16:37.737Z,99388.00
2022-12-27T05:19:10.011Z,99379.00
2022-12-27T05:21:41.736Z,99374.00
2022-12-27T05:24:29.301Z,99372.00
2022-12-27T05:26:58.879Z,99373.00
2022-12-27T05:29:32.389Z,99364.00
2022-12-27T05:32:01.570Z,99361.00
2022-12-27T05:34:30.781Z,99356.00
2022-12-27T05:36:59.946Z,99351.00
2022-12-27T05:39:29.112Z,99342.00
2022-12-27T05:41:58.360Z,99341.00
2022-12-27T05:44:28.492Z,99331.00
2022-12-27T05:46:58.488Z,99336.00
2022-12-27T05:49:27.688Z,99327.00
2022-12-27T05:51:56.849Z,99327.00
2022-12-27T05:54:26.073Z,99329.00
2022-12-27T05:56:55.737Z,99318.00
2022-12-27T05:59:24.869Z,99313.00
2022-12-27T06:01:54.400Z,99298.00
2022-12-27T06:04:23.752Z,99294.00
2022-12-27T06:06:52.983Z,99295.00
2022-12-27T06:09:22.474Z,99292.00
2022-12-27T06:11:51.762Z,99284.00
2022-12-27T06:14:21.069Z,99273.00
2022-12-27T06:16:50.520Z,99268.00
2022-12-27T06:19:19.802Z,99266.00
2022-12-27T06:21:49.054Z,99265.00
2022-12-27T06:24:18.752Z,99259.00
2022-12-27T06:26:47.999Z,99250.00
2022-12-27T06:29:17.951Z,99244.00
2022-12-27T06:31:47.448Z,99245.00
2022-12-27T06:34:16.657Z,99232.00
2022-12-27T06:36:51.134Z,99226.00
2022-12-27T06:39:21.496Z,99225.00
2022-12-27T06:41:51.717Z,99209.00
2022-12-27T06:44:20.789Z,99219.00
2022-12-27T06:46:50.040Z,99209.00
2022-12-27T06:49:19.183Z,99212.00
2022-12-27T06:51:54.153Z,99203.00
2022-12-27T06:54:26.181Z,99204.00
2022-12-27T06:56:56.655Z,99203.00
2022-12-27T06:59:26.318Z,99193.00
2022-12-27T07:01:55.532Z,99191.00
2022-12-27T07:04:24.803Z,99194.00
2022-12-27T07:06:53.893Z,99185.00
2022-12-27T07:09:23.013Z,99187.00
2022-12-27T07:11:52.149Z,99183.00
2022-12-27T07:14:21.235Z,99175.00
2022-12-27T07:16:51.778Z,99181.00
2022-12-27T07:19:20.894Z,99175.00
2022-12-27T07:21:50.028Z,99173.00
2022-12-27T07:24:19.169Z,99167.00
2022-12-27T07:26:48.588Z,99172.00
2022-12-27T07:32:01.434Z,99161.00
2022-12-27T07:34:30.621Z,99166.00
2022-12-27T07:36:59.809Z,99159.00
2022-12-27T07:39:29.255Z,99152.00
2022-12-27T07:42:01.983Z,99152.00
2022-12-27T07:44:35.576Z,99155.00
2022-12-27T07:47:04.818Z,99149.00
2022-12-27T07:49:34.065Z,99156.00
2022-12-27T07:52:03.332Z,99142.00
2022-12-27T07:54:32.544Z,99135.00
2022-12-27T07:57:01.729Z,99131.00
2022-12-27T07:59:30.935Z,99129.00
2022-12-27T08:02:06.392Z,99125.00
2022-12-27T08:04:39.340Z,99124.00
2022-12-27T08:07:16.953Z,99125.00
2022-12-27T08:09:48.961Z,99119.00
2022-12-27T08:12:18.381Z,99124.00
2022-12-27T08:14:47.554Z,99125.00
2022-12-27T08:17:28.851Z,99128.00
2022-12-27T08:19:58.608Z,99127.00
2022-12-27T08:22:27.783Z,99126.00
2022-12-27T08:24:57.228Z,99130.00
2022-12-27T08:27:27.550Z,99125.00
2022-12-27T08:29:56.801Z,99119.00
2022-12-27T08:32:26.223Z,99118.00
2022-12-27T08:37:25.239Z,99119.00
2022-12-27T08:39:57.803Z,99110.00
2022-12-27T08:42:31.721Z,99120.00
2022-12-27T08:45:01.567Z,99109.00
2022-12-27T08:47:30.758Z,99113.00
2022-12-27T08:49:59.986Z,99113.00
2022-12-27T08:52:29.195Z,99111.00
2022-12-27T08:54:58.242Z,99113.00
2022-12-27T08:57:27.504Z,99110.00
2022-12-27T08:59:56.779Z,99111.00
2022-12-27T09:02:26.180Z,99111.00
2022-12-27T09:04:55.524Z,99112.00
2022-12-27T09:07:24.696Z,99117.00
2022-12-27T09:09:53.885Z,99117.00
2022-12-27T09:12:23.167Z,99121.00
2022-12-27T09:14:52.352Z,99115.00
2022-12-27T09:17:21.539Z,99117.00
2022-12-27T09:19:50.742Z,99126.00
2022-12-27T09:22:20.228Z,99117.00
2022-12-27T09:24:49.464Z,99121.00
2022-12-27T09:27:18.704Z,99124.00
2022-12-27T09:29:48.521Z,99131.00
2022-12-27T09:32:17.959Z,99134.00
2022-12-27T09:34:47.207Z,99129.00
2022-12-27T09:37:16.479Z,99134.00
2022-12-27T09:39:46.296Z,99132.00
2022-12-27T09:43:02.995Z,99135.00
2022-12-27T09:45:46.759Z,99139.00
2022-12-27T09:48:40.996Z,99144.00
2022-12-27T09:51:37.616Z,99141.00
2022-12-27T09:54:25.887Z,99137.00
2022-12-27T09:57:18.826Z,99138.00
2022-12-27T09:59:51.340Z,99143.00
2022-12-27T10:02:29.866Z,99142.00
2022-12-27T10:08:11.676Z,99144.00
2022-12-27T10:11:35.811Z,99142.00
2022-12-27T10:15:01.567Z,99140.00
2022-12-27T10:18:13.500Z,99130.00
2022-12-27T10:21:33.055Z,99137.00
2022-12-27T10:24:22.055Z,99130.00
2022-12-27T10:26:55.239Z,99134.00
2022-12-27T10:29:31.290Z,99143.00
2022-12-27T10:32:00.397Z,99140.00
2022-12-27T10:34:29.737Z,99145.00
2022-12-27T10:36:59.794Z,99144.00
2022-12-27T10:39:33.174Z,99139.00
2022-12-27T10:42:28.130Z,99147.00
2022-12-27T10:45:34.644Z,99146.00
2022-12-27T10:49:02.675Z,99147.00
2022-12-27T10:51:24.434Z,99147.00
2022-12-27T10:54:04.004Z,99148.00
2022-12-27T10:56:37.589Z,99147.00
2022-12-27T10:59:25.979Z,99144.00
2022-12-27T11:02:04.364Z,99152.00
2022-12-27T11:04:34.234Z,99147.00
2022-12-27T11:07:06.382Z,99142.00
2022-12-27T11:09:50.316Z,99140.00
2022-12-27T11:12:33.929Z,99145.00
2022-12-27T11:15:14.916Z,99143.00
2022-12-27T11:17:51.511Z,99149.00
2022-12-27T11:20:40.727Z,99147.00
2022-12-27T11:23:18.833Z,99150.00
2022-12-27T11:26:03.997Z,99153.00
2022-12-27T11:28:41.395Z,99156.00
2022-12-27T11:31:21.733Z,99159.00
2022-12-27T11:34:26.883Z,99159.00
2022-12-27T11:37:06.755Z,99163.00
2022-12-27T11:39:53.526Z,99170.00
2022-12-27T11:42:42.130Z,99175.00
2022-12-27T11:45:14.321Z,99177.00
2022-12-27T11:48:04.578Z,99183.00
2022-12-27T11:50:48.155Z,99184.00
2022-12-27T11:53:56.230Z,99192.00
2022-12-27T11:56:32.005Z,99200.00
2022-12-27T11:59:44.583Z,99204.00
2022-12-27T12:02:53.869Z,99201.00
2022-12-27T12:06:12.167Z,99206.00
2022-12-27T12:09:04.403Z,99214.00
2022-12-27T12:12:23.756Z,99220.00
2022-12-27T12:15:03.908Z,99225.00
2022-12-27T12:18:20.675Z,99232.00
2022-12-27T12:21:10.412Z,99235.00
2022-12-27T12:24:21.331Z,99240.00
2022-12-27T12:27:08.405Z,99236.00
2022-12-27T12:30:10.466Z,99238.00
2022-12-27T12:32:58.220Z,99247.00
2022-12-27T12:36:22.880Z,99243.00
2022-12-27T12:39:04.487Z,99242.00
2022-12-27T12:41:57.835Z,99250.00
2022-12-27T12:45:11.005Z,99242.00
2022-12-27T12:48:06.894Z,99253.00
2022-12-27T12:51:27.861Z,99254.00
2022-12-27T12:54:35.443Z,99254.00
2022-12-27T12:57:13.825Z,99257.00
2022-12-27T13:00:13.453Z,99257.00
2022-12-27T13:03:13.684Z,99267.00
2022-12-27T13:06:02.835Z,99269.00
2022-12-27T13:08:43.185Z,99275.00
2022-12-27T13:11:26.930Z,99278.00
2022-12-27T13:14:22.664Z,99280.00
2022-12-27T13:17:25.183Z,99286.00
2022-12-27T13:20:42.425Z,99296.00
2022-12-27T13:23:36.366Z,99294.00
2022-12-27T13:26:38.107Z,99291.00
2022-12-27T13:29:42.274Z,99297.00
2022-12-27T13:32:36.946Z,99298.00
2022-12-27T13:35:54.616Z,99311.00
2022-12-27T13:38:46.058Z,99318.00
2022-12-27T13:41:36.739Z,99323.00
2022-12-27T13:44:37.967Z,99329.00
2022-12-27T13:47:40.684Z,99327.00
2022-12-27T13:51:03.561Z,99332.00
2022-12-27T13:53:56.547Z,99332.00
2022-12-27T13:57:07.608Z,99337.00
2022-12-27T13:59:48.554Z,99334.00
2022-12-27T14:02:39.292Z,99339.00
2022-12-27T14:05:20.699Z,99339.00
2022-12-27T14:08:21.627Z,99340.00
2022-12-27T14:11:00.728Z,99348.00
2022-12-27T14:13:44.080Z,99350.00
2022-12-27T14:16:37.008Z,99354.00
2022-12-27T14:19:37.348Z,99353.00
2022-12-27T14:22:52.423Z,99360.00
2022-12-27T14:25:37.747Z,99363.00
2022-12-27T14:29:20.210Z,99366.00
2022-12-27T14:32:28.652Z,99366.00
2022-12-27T14:35:53.123Z,99367.00
2022-12-27T14:38:52.248Z,99368.00
2022-12-27T14:41:56.379Z,99370.00
2022-12-27T14:45:15.121Z,99366.00
2022-12-27T14:48:25.565Z,99371.00
2022-12-27T14:52:00.770Z,99369.00
2022-12-27T14:55:34.860Z,99381.00
2022-12-27T14:58:15.464Z,99388.00
2022-12-27T15:01:20.885Z,99387.00
2022-12-27T15:04:26.439Z,99389.00
2022-12-27T15:07:33.434Z,99403.00
2022-12-27T15:10:16.342Z,99402.00
2022-12-27T15:13:11.906Z,99406.00
2022-12-27T15:16:19.934Z,99402.00
2022-12-27T15:18:58.073Z,99405.00
2022-12-27T15:21:51.351Z,99412.00
2022-12-27T15:24:38.719Z,99417.00
2022-12-27T15:27:38.466Z,99410.00
2022-12-27T15:30:36.401Z,99410.00
2022-12-27T15:33:51.954Z,99411.00
2022-12-27T15:36:41.889Z,99415.00
2022-12-27T15:39:36.445Z,99408.00
2022-12-27T15:42:51.789Z,99414.00
2022-12-27T15:46:01.411Z,99420.00
2022-12-27T15:48:57.818Z,99422.00
2022-12-27T15:51:41.144Z,99422.00
2022-12-27T15:54:19.224Z,99423.00
2022-12-27T15:56:54.024Z,99431.00
2022-12-27T15:59:49.894Z,99424.00
2022-12-27T16:02:56.613Z,99418.00
2022-12-27T16:05:31.875Z,99423.00
2022-12-27T16:08:06.229Z,99414.00
2022-12-27T16:10:46.493Z,99415.00
2022-12-27T16:13:41.118Z,99423.00
2022-12-27T16:16:43.173Z,99420.00
2022-12-27T16:19:22.291Z,99420.00
2022-12-27T16:21:52.639Z,99423.00
2022-12-27T16:24:26.877Z,99414.00
2022-12-27T16:27:06.543Z,99422.00
2022-12-27T16:29:38.300Z,99423.00
2022-12-27T16:32:25.410Z,99420.00
2022-12-27T16:35:11.616Z,99419.00
2022-12-27T16:37:53.779Z,99419.00
2022-12-27T16:40:52.878Z,99429.00
2022-12-27T16:43:21.969Z,99423.00
2022-12-27T16:46:18.459Z,99423.00
2022-12-27T16:49:24.177Z,99421.00
2022-12-27T16:52:28.308Z,99421.00
2022-12-27T16:55:18.661Z,99424.00
2022-12-27T16:57:50.880Z,99421.00
2022-12-27T17:00:47.113Z,99413.00
2022-12-27T17:03:39.315Z,99413.00
2022-12-27T17:06:33.965Z,99415.00
2022-12-27T17:09:12.680Z,99404.00
2022-12-27T17:12:12.429Z,99407.00
2022-12-27T17:14:45.164Z,99406.00
2022-12-27T17:17:24.636Z,99404.00
2022-12-27T17:20:06.083Z,99408.00
2022-12-27T17:22:39.772Z,99410.00
2022-12-27T17:25:17.232Z,99406.00
2022-12-27T17:28:18.501Z,99410.00
2022-12-27T17:31:19.156Z,99404.00
2022-12-27T17:34:20.087Z,99399.00
2022-12-27T17:37:14.975Z,99399.00
2022-12-27T17:40:14.196Z,99394.00
2022-12-27T17:43:10.736Z,99397.00
2022-12-27T17:45:59.086Z,99392.00
2022-12-27T17:48:35.484Z,99399.00
2022-12-27T17:51:13.585Z,99389.00
2022-12-27T17:54:09.892Z,99384.00
2022-12-27T17:57:20.541Z,99389.00
2022-12-27T17:59:52.169Z,99378.00
2022-12-27T18:02:39.191Z,99381.00
2022-12-27T18:05:22.127Z,99373.00
2022-12-27T18:08:07.511Z,99377.00
2022-12-27T18:10:43.400Z,99376.00
2022-12-27T18:13:21.029Z,99373.00
2022-12-27T18:15:53.525Z,99370.00
2022-12-27T18:21:30.491Z,99358.00
2022-12-27T18:24:00.279Z,99360.00
2022-12-27T18:26:47.461Z,99354.00
2022-12-27T18:29:16.613Z,99349.00
2022-12-27T18:31:52.401Z,99346.00
2022-12-27T18:34:45.222Z,99349.00
2022-12-27T18:37:26.492Z,99349.00
2022-12-27T18:40:05.563Z,99349.00
2022-12-27T18:42:42.189Z,99352.00
2022-12-27T18:45:35.664Z,99341.00
2022-12-27T18:48:13.091Z,99334.00
2022-12-27T18:50:52.523Z,99343.00
2022-12-27T18:53:36.365Z,99339.00
2022-12-27T18:56:17.456Z,99340.00
2022-12-27T18:59:26.517Z,99345.00
2022-12-27T19:01:58.990Z,99340.00
2022-12-27T19:04:33.785Z,99338.00
2022-12-27T19:07:15.909Z,99332.00
2022-12-27T19:09:55.136Z,99328.00
2022-12-27T19:12:36.642Z,99332.00
2022-12-27T19:15:29.349Z,99331.00
2022-12-27T19:18:07.271Z,99324.00
2022-12-27T19:20:38.498Z,99324.00
2022-12-27T19:23:32.265Z,99332.00
2022-12-27T19:26:18.256Z,99324.00
2022-12-27T19:29:01.218Z,99316.00
2022-12-27T19:31:31.286Z,99314.00
2022-12-27T19:34:09.364Z,99315.00
2022-12-27T19:36:45.404Z,99320.00
2022-12-27T19:39:44.884Z,99313.00
2022-12-27T19:42:23.987Z,99307.00
2022-12-27T19:44:53.093Z,99312.00
2022-12-27T19:47:22.190Z,99309.00
2022-12-27T19:49:51.362Z,99307.00
2022-12-27T19:52:27.767Z,99305.00
2022-12-27T19:55:08.599Z,99294.00
2022-12-27T19:57:37.692Z,99309.00
2022-12-27T20:00:19.326Z,99308.00
2022-12-27T20:02:48.787Z,99304.00
2022-12-27T20:05:18.047Z,99300.00
2022-12-27T20:08:21.299Z,99307.00
2022-12-27T20:10:50.531Z,99307.00
2022-12-27T20:13:20.242Z,99306.00
2022-12-27T20:15:51.032Z,99296.00
2022-12-27T20:18:20.810Z,99299.00
2022-12-27T20:20:51.174Z,99299.00
2022-12-27T20:23:22.719Z,99299.00
2022-12-27T20:25:52.238Z,99294.00
2022-12-27T20:28:21.368Z,99295.00
2022-12-27T20:30:50.526Z,99295.00
2022-12-27T20:33:19.980Z,99288.00
2022-12-27T20:35:58.623Z,99293.00
2022-12-27T20:38:27.748Z,99296.00
2022-12-27T20:40:57.267Z,99296.00
2022-12-27T20:43:26.535Z,99289.00
2022-12-27T20:45:55.706Z,99292.00
2022-12-27T20:48:24.908Z,99296.00
2022-12-27T20:50:54.121Z,99289.00
2022-12-27T20:53:28.694Z,99292.00
2022-12-27T20:56:02.529Z,99285.00
2022-12-27T20:58:34.166Z,99286.00
2022-12-27T21:01:17.851Z,99289.00
2022-12-27T21:03:47.708Z,99295.00
2022-12-27T21:06:24.153Z,99297.00
2022-12-27T21:08:57.223Z,99296.00
2022-12-27T21:11:32.168Z,99293.00
2022-12-27T21:14:04.872Z,99299.00
2022-12-27T21:16:36.756Z,99300.00
2022-12-27T21:19:07.470Z,99304.00
2022-12-27T21:21:39.553Z,99305.00
2022-12-27T21:24:11.731Z,99304.00
2022-12-27T21:26:42.528Z,99309.00
2022-12-27T21:29:13.235Z,99311.00
2022-12-27T21:31:42.429Z,99313.00
2022-12-27T21:34:11.765Z,99313.00
2022-12-27T21:36:41.036Z,99320.00
2022-12-27T21:39:11.023Z,99322.00
2022-12-27T21:41:42.374Z,99317.00
2022-12-27T21:44:11.910Z,99322.00
2022-12-27T21:46:43.923Z,99329.00
2022-12-27T21:49:15.248Z,99329.00
2022-12-27T21:51:45.785Z,99332.00
2022-12-27T21:54:17.152Z,99332.00
2022-12-27T21:56:46.734Z,99334.00
2022-12-27T21:59:15.914Z,99334.00
2022-12-27T22:01:51.465Z,99331.00
2022-12-27T22:04:23.145Z,99337.00
2022-12-27T22:06:52.765Z,99339.00
2022-12-27T22:09:21.906Z,99339.00
2022-12-27T22:11:51.136Z,99337.00
2022-12-27T22:14:25.239Z,99343.00
2022-12-27T22:16:54.794Z,99336.00
2022-12-27T22:19:23.968Z,99341.00
2022-12-27T22:21:53.132Z,99350.00
2022-12-27T22:24:22.389Z,99352.00
2022-12-27T22:26:51.653Z,99356.00
2022-12-27T22:29:22.624Z,99348.00
2022-12-27T22:31:51.869Z,99346.00
2022-12-27T22:34:21.055Z,99349.00
2022-12-27T22:36:53.383Z,99361.00
2022-12-27T22:39:22.672Z,99358.00
2022-12-27T22:41:51.848Z,99363.00
2022-12-27T22:44:21.228Z,99363.00
2022-12-27T22:47:24.130Z,99359.00
2022-12-27T22:49:39.847Z,99367.00
2022-12-27T22:52:09.055Z,99363.00
2022-12-27T22:55:02.927Z,99363.00
2022-12-27T22:57:27.456Z,99376.00
2022-12-27T22:59:56.630Z,99366.00
2022-12-27T23:02:25.943Z,99375.00
2022-12-27T23:04:55.243Z,99374.00
2022-12-27T23:08:04.525Z,99373.00
2022-12-27T23:10:14.346Z,99377.00
2022-12-27T23:12:43.633Z,99376.00
2022-12-27T23:15:15.191Z,99377.00
2022-12-27T23:17:44.619Z,99386.00
2022-12-27T23:20:14.153Z,99392.00
2022-12-27T23:22:43.320Z,99394.00
2022-12-27T23:25:12.509Z,99399.00
2022-12-27T23:27:41.660Z,99404.00
2022-12-27T23:30:11.934Z,99406.00
2022-12-27T23:32:41.181Z,99410.00
2022-12-27T23:35:10.914Z,99411.00
2022-12-27T23:37:40.105Z,99416.00
2022-12-27T23:40:10.242Z,99418.00
2022-12-27T23:42:39.421Z,99420.00
2022-12-27T23:45:09.439Z,99426.00
2022-12-27T23:47:38.678Z,99428.00
2022-12-27T23:50:08.534Z,99429.00
2022-12-27T23:52:37.704Z,99425.00
2022-12-27T23:55:08.473Z,99429.00
2022-12-27T23:57:37.636Z,99434.00
